Time;durP1;ratioP1;P1;durP2;ratioP2;P2;SDS_P1;SDS_P2;PMS_P1;PMS_P2;Temp;Humidity;BMP_temperature;BMP_pressure;BME280_temperature;BME280_humidity;BME280_pressure;Samples;Min_cycle;Max_cycle;Signal;HPM_P1;HPM_P2
2022/08/05 00:01:32;;;;;;;5.70;5.20;;;;;;;17.25;74.67;97475.59;110220;1247;71524;-72
2022/08/05 00:04:17;;;;;;;7.50;5.60;;;;;;;17.23;73.88;97477.37;110204;1247;69471;-72
2022/08/05 00:06:46;;;;;;;7.10;6.40;;;;;;;17.22;73.18;97476.91;110164;1247;68800;-74
2022/08/05 00:09:19;;;;;;;5.70;5.20;;;;;;;17.23;74.77;97478.20;110153;1247;59757;-73
2022/08/05 00:11:50;;;;;;;7.40;6.60;;;;;;;17.23;74.59;97479.60;110451;1247;59719;-73
2022/08/05 00:14:27;;;;;;;7.20;6.10;;;;;;;17.24;74.61;97480.96;110274;1247;70726;-72
2022/08/05 00:16:59;;;;;;;6.40;5.60;;;;;;;17.13;76.02;97478.94;110544;1247;68655;-73
2022/08/05 00:19:30;;;;;;;5.60;5.00;;;;;;;17.03;76.41;97476.20;110265;1247;68581;-74
2022/08/05 00:22:03;;;;;;;10.10;5.20;;;;;;;16.96;76.98;97474.05;110337;1245;59752;-72
2022/08/05 00:24:34;;;;;;;5.90;5.30;;;;;;;16.93;76.83;97477.89;110307;1247;59691;-72
2022/08/05 00:27:11;;;;;;;6.30;5.40;;;;;;;16.90;77.94;97473.20;110058;1247;70735;-70
2022/08/05 00:29:44;;;;;;;5.30;4.80;;;;;;;16.88;78.07;97474.47;110098;1247;68722;-71
2022/08/05 00:32:16;;;;;;;5.60;5.00;;;;;;;16.87;78.36;97477.64;110164;1247;68603;-74
2022/08/05 00:34:46;;;;;;;6.80;5.60;;;;;;;16.84;78.98;97478.02;110187;1247;60215;-72
2022/08/05 00:37:35;;;;;;;5.30;4.70;;;;;;;16.83;76.71;97476.23;110243;1247;59620;-71
2022/08/05 00:40:25;;;;;;;6.10;5.50;;;;;;;16.82;76.56;97477.92;110320;1247;70753;-72
2022/08/05 00:42:59;;;;;;;5.60;5.00;;;;;;;16.82;77.88;97474.77;110189;1246;68410;-74
2022/08/05 00:45:29;;;;;;;5.90;5.10;;;;;;;16.81;77.25;97472.02;110238;1247;69391;-73
2022/08/05 00:48:18;;;;;;;6.10;5.40;;;;;;;16.79;78.59;97476.39;110159;1247;59772;-73
2022/08/05 00:51:00;;;;;;;5.70;4.90;;;;;;;16.76;78.67;97472.83;110187;1247;59638;-73
2022/08/05 00:53:50;;;;;;;6.30;5.60;;;;;;;16.73;79.52;97476.45;110085;1247;70819;-71
2022/08/05 00:56:31;;;;;;;7.50;5.90;;;;;;;16.70;79.39;97476.89;110097;1247;69090;-73
2022/08/05 00:59:00;;;;;;;;;;;;;;;16.67;79.44;97475.56;109800;1249;69488;-74
2022/08/05 01:01:35;;;;;;;6.20;5.00;;;;;;;16.64;77.40;97475.90;110205;1247;59749;-70
2022/08/05 01:04:17;;;;;;;6.30;5.10;;;;;;;16.62;76.74;97471.02;110220;1247;59643;-71
2022/08/05 01:06:55;;;;;;;5.60;5.10;;;;;;;16.61;77.73;97475.90;110222;1247;70747;-72
2022/08/05 01:09:27;;;;;;;6.20;5.10;;;;;;;16.57;78.90;97470.77;110146;1247;68932;-73
2022/08/05 01:12:02;;;;;;;5.60;5.10;;;;;;;16.55;79.71;97465.70;110142;1247;69394;-73
2022/08/05 01:14:54;;;;;;;;;;;;;;;16.52;80.13;97466.16;110243;1247;59699;-72
2022/08/05 01:17:31;;;;;;;6.40;5.20;;;;;;;16.49;80.38;97463.05;110196;1247;59726;-74
2022/08/05 01:20:32;;;;;;;7.10;6.00;;;;;;;16.49;80.51;97460.98;108800;1247;1868126;-74
2022/08/05 01:23:20;;;;;;;6.20;4.90;;;;;;;16.47;80.31;97457.52;110428;1246;69297;-72
2022/08/05 01:26:08;;;;;;;5.80;4.90;;;;;;;16.43;79.83;97457.31;110454;1246;69527;-72
2022/08/05 01:28:47;;;;;;;6.30;5.20;;;;;;;16.41;80.94;97459.89;110060;1248;59723;-74
2022/08/05 01:31:27;;;;;;;8.20;6.30;;;;;;;16.36;80.78;97460.84;110129;1248;59696;-74
2022/08/05 01:34:18;;;;;;;7.10;5.80;;;;;;;16.27;77.83;97460.10;110082;1247;71350;-71
2022/08/05 01:36:55;;;;;;;6.10;5.40;;;;;;;16.18;81.11;97466.77;110170;1247;69706;-71
2022/08/05 01:39:31;;;;;;;7.60;6.20;;;;;;;16.13;80.21;97464.42;110130;1247;69881;-74
2022/08/05 01:42:19;;;;;;;6.30;5.60;;;;;;;16.03;79.91;97462.24;110177;1246;60049;-72
2022/08/05 01:44:49;;;;;;;5.90;5.10;;;;;;;15.96;81.47;97463.40;110316;1247;60092;-73
2022/08/05 01:47:26;;;;;;;7.20;5.60;;;;;;;15.92;81.51;97462.85;110188;1248;69766;-73
2022/08/05 01:50:15;;;;;;;7.00;5.20;;;;;;;15.86;80.76;97466.56;110198;1247;69451;-71
2022/08/05 01:52:52;;;;;;;6.00;5.40;;;;;;;15.83;82.59;97465.46;110079;1248;68625;-72
2022/08/05 01:55:28;;;;;;;6.00;5.20;;;;;;;15.80;83.27;97465.96;110300;1247;59759;-71
2022/08/05 01:58:08;;;;;;;5.60;5.10;;;;;;;15.77;82.88;97464.08;110253;1247;59687;-72
2022/08/05 02:00:51;;;;;;;7.10;5.70;;;;;;;15.76;83.67;97462.61;110088;1247;70673;-72
2022/08/05 02:03:25;;;;;;;6.00;5.30;;;;;;;15.74;83.06;97463.95;110115;1247;68869;-72
2022/08/05 02:06:01;;;;;;;6.40;5.10;;;;;;;15.72;80.43;97466.44;110090;1247;68750;-73
2022/08/05 02:08:52;;;;;;;5.30;4.70;;;;;;;15.69;78.59;97467.64;110374;1247;59696;-76
2022/08/05 02:11:50;;;;;;;6.80;4.70;;;;;;;15.66;77.59;97465.17;110063;1247;59767;-72
2022/08/05 02:14:29;;;;;;;7.60;6.30;;;;;;;15.61;80.10;97460.08;110161;1247;71587;-72
2022/08/05 02:17:07;;;;;;;7.70;6.90;;;;;;;15.58;82.92;97457.81;110244;1247;69225;-73
2022/08/05 02:20:03;;;;;;;7.40;6.30;;;;;;;15.57;85.66;97456.25;110368;1247;68633;-70
2022/08/05 02:22:41;;;;;;;7.30;6.30;;;;;;;15.61;85.78;97457.48;110333;1246;59764;-73
2022/08/05 02:25:21;;;;;;;6.10;5.50;;;;;;;15.63;81.78;97456.45;110253;1247;59732;-71
2022/08/05 02:27:57;;;;;;;6.70;5.90;;;;;;;15.63;80.34;97456.59;110143;1247;70965;-72
2022/08/05 02:30:37;;;;;;;6.00;5.40;;;;;;;15.62;79.89;97454.04;110125;1246;69312;-71
2022/08/05 02:33:24;;;;;;;7.30;6.00;;;;;;;15.59;79.98;97452.54;110110;1247;68988;-73
2022/08/05 02:36:09;;;;;;;7.80;6.10;;;;;;;15.58;81.93;97452.69;110257;1246;59690;-72
2022/08/05 02:38:48;;;;;;;6.30;5.60;;;;;;;15.57;82.58;97452.90;110137;1246;59643;-71
2022/08/05 02:41:24;;;;;;;6.30;5.20;;;;;;;15.59;83.37;97452.30;110174;1246;70798;-71
2022/08/05 02:44:09;;;;;;;6.80;5.00;;;;;;;15.57;80.72;97449.81;110102;1247;69751;-72
2022/08/05 02:46:44;;;;;;;7.10;6.00;;;;;;;15.58;83.22;97453.23;110117;1247;69408;-73
2022/08/05 02:49:33;;;;;;;5.80;5.10;;;;;;;15.58;84.11;97451.82;110141;1247;59706;-73
2022/08/05 02:52:08;;;;;;;7.10;6.10;;;;;;;15.56;81.18;97449.02;110239;1247;59667;-71
2022/08/05 02:54:42;;;;;;;7.30;6.20;;;;;;;15.52;80.93;97446.67;110342;1247;70749;-71
2022/08/05 02:57:21;;;;;;;6.20;5.60;;;;;;;15.49;83.27;97445.04;110293;1247;68606;-73
2022/08/05 03:00:11;;;;;;;6.50;5.30;;;;;;;15.45;81.60;97444.38;110174;1247;68575;-72
2022/08/05 03:02:43;;;;;;;7.10;5.50;;;;;;;15.42;81.75;97447.65;110290;1247;59722;-71
2022/08/05 03:05:14;;;;;;;7.40;6.60;;;;;;;15.36;83.99;97446.45;110262;1247;59744;-71
2022/08/05 03:07:44;;;;;;;7.00;5.90;;;;;;;15.32;85.59;97445.02;109929;1247;71524;-72
2022/08/05 03:10:33;;;;;;;6.20;5.50;;;;;;;15.31;84.35;97448.31;109966;1247;69270;-71
2022/08/05 03:13:14;;;;;;;6.00;5.30;;;;;;;15.30;83.20;97450.14;110014;1247;68779;-72
2022/08/05 03:15:46;;;;;;;6.60;5.80;;;;;;;15.29;82.45;97452.71;110225;1247;59863;-71
2022/08/05 03:18:14;;;;;;;8.00;6.90;;;;;;;15.28;83.90;97452.77;110160;1246;59763;-72
2022/08/05 03:20:52;;;;;;;7.40;6.50;;;;;;;15.28;85.37;97451.91;110212;1247;70862;-71
2022/08/05 03:23:23;;;;;;;7.80;6.70;;;;;;;15.24;85.57;97451.22;110168;1247;68604;-71
2022/08/05 03:25:53;;;;;;;7.20;6.00;;;;;;;15.21;84.90;97450.63;110210;1247;68650;-72
2022/08/05 03:28:42;;;;;;;6.90;6.20;;;;;;;15.18;85.62;97449.81;110319;1246;59811;-72
2022/08/05 03:31:13;;;;;;;8.70;6.70;;;;;;;15.16;85.65;97447.05;110240;1247;59688;-71
2022/08/05 03:34:03;;;;;;;7.70;6.50;;;;;;;15.14;86.10;97450.76;110212;1246;72253;-71
2022/08/05 03:36:33;;;;;;;7.60;6.20;;;;;;;15.14;87.01;97446.84;110282;1246;69488;-71
2022/08/05 03:39:06;;;;;;;7.50;6.70;;;;;;;15.15;86.75;97448.31;110358;1247;68435;-72
2022/08/05 03:41:47;;;;;;;7.00;6.20;;;;;;;15.17;86.93;97447.13;110219;1247;59757;-71
2022/08/05 03:44:22;;;;;;;7.00;6.20;;;;;;;15.19;86.64;97444.79;110254;1247;59688;-71
2022/08/05 03:46:51;;;;;;;8.30;7.00;;;;;;;15.23;87.05;97443.87;110290;1244;70883;-70
2022/08/05 03:49:22;;;;;;;9.30;7.10;;;;;;;15.25;86.30;97449.04;110117;1247;69405;-72
2022/08/05 03:52:21;;;;;;;6.60;5.90;;;;;;;15.26;85.68;97451.37;110083;1246;69526;-72
2022/08/05 03:55:23;;;;;;;7.20;5.50;;;;;;;15.30;83.90;97447.86;110126;1247;59703;-73
2022/08/05 03:58:16;;;;;;;6.90;5.60;;;;;;;15.34;84.69;97449.25;110035;1247;59694;-70
2022/08/05 04:00:48;;;;;;;7.10;6.10;;;;;;;15.38;84.60;97449.71;110173;1247;71631;-71
2022/08/05 04:03:21;;;;;;;6.40;5.20;;;;;;;15.44;82.87;97450.08;110313;1246;69256;-70
2022/08/05 04:05:57;;;;;;;7.00;5.40;;;;;;;15.51;81.51;97447.84;109922;1247;68534;-73
2022/08/05 04:08:29;;;;;;;8.20;6.90;;;;;;;15.61;83.81;97449.98;110040;1247;59733;-72
2022/08/05 04:11:06;;;;;;;7.10;6.00;;;;;;;15.70;84.79;97452.10;110137;1247;59644;-70
2022/08/05 04:13:40;;;;;;;7.30;6.00;;;;;;;15.79;83.05;97453.58;110022;1247;72374;-70
2022/08/05 04:16:20;;;;;;;7.90;7.00;;;;;;;15.91;84.22;97452.96;110092;1247;69066;-70
2022/08/05 04:19:01;;;;;;;6.20;5.40;;;;;;;16.03;83.97;97451.10;110108;1247;67981;-73
2022/08/05 04:21:39;;;;;;;8.50;6.10;;;;;;;16.19;82.89;97451.02;110266;1247;59677;-70
2022/08/05 04:24:28;;;;;;;6.80;5.60;;;;;;;16.40;82.36;97453.64;110088;1247;59653;-73
2022/08/05 04:26:57;;;;;;;7.20;6.20;;;;;;;16.67;82.19;97452.45;110169;1248;70771;-72
2022/08/05 04:29:28;;;;;;;6.30;5.60;;;;;;;16.94;81.10;97451.17;110227;1247;69396;-70
2022/08/05 04:31:57;;;;;;;8.10;6.20;;;;;;;17.17;80.36;97452.63;110149;1247;68624;-73
2022/08/05 04:34:27;;;;;;;6.60;6.00;;;;;;;17.37;79.38;97449.55;110253;1247;59786;-72
2022/08/05 04:37:02;;;;;;;7.70;6.70;;;;;;;17.50;78.33;97453.70;110064;1247;59659;-72
2022/08/05 04:39:34;;;;;;;7.50;6.40;;;;;;;17.60;77.44;97453.11;110085;1245;69760;-71
2022/08/05 04:42:14;;;;;;;6.90;6.30;;;;;;;17.68;77.40;97457.02;110123;1247;68692;-71
2022/08/05 04:44:56;;;;;;;7.70;6.30;;;;;;;17.73;77.46;97454.04;110119;1247;68573;-72
2022/08/05 04:47:28;;;;;;;8.00;6.70;;;;;;;17.77;77.30;97456.32;110072;1248;59765;-70
2022/08/05 04:50:06;;;;;;;9.10;6.80;;;;;;;17.81;77.03;97453.58;110152;1245;59684;-73
2022/08/05 04:52:39;;;;;;;6.60;6.00;;;;;;;17.86;77.08;97456.83;109883;1250;70777;-70
2022/08/05 04:55:09;;;;;;;6.70;5.70;;;;;;;17.96;77.08;97454.38;110134;1247;68768;-72
2022/08/05 04:57:44;;;;;;;6.00;5.40;;;;;;;18.12;76.80;97455.79;110050;1247;69389;-72
2022/08/05 05:00:15;;;;;;;7.60;5.60;;;;;;;18.33;75.86;97455.55;110114;1246;59763;-71
2022/08/05 05:02:44;;;;;;;8.30;6.40;;;;;;;18.54;75.40;97455.41;110071;1247;59653;-71
2022/08/05 05:05:14;;;;;;;5.80;5.20;;;;;;;18.74;74.61;97449.67;110081;1247;71494;-72
2022/08/05 05:08:02;;;;;;;9.00;7.20;;;;;;;19.07;74.12;97445.10;110032;1247;68531;-71
2022/08/05 05:10:36;;;;;;;6.40;5.50;;;;;;;19.33;73.19;97441.59;110056;1247;68604;-71
2022/08/05 05:13:05;;;;;;;5.90;5.30;;;;;;;19.72;73.42;97443.55;110115;1247;59691;-71
2022/08/05 05:15:35;;;;;;;5.50;5.00;;;;;;;20.21;73.99;97441.48;110195;1246;59688;-73
2022/08/05 05:18:24;;;;;;;7.40;6.00;;;;;;;20.77;72.01;97443.11;110088;1247;71322;-73
2022/08/05 05:21:02;;;;;;;6.40;5.80;;;;;;;21.16;68.90;97442.23;110148;1246;69632;-71
2022/08/05 05:23:32;;;;;;;6.90;6.20;;;;;;;21.44;66.93;97435.05;110153;1245;69065;-71
2022/08/05 05:26:22;;;;;;;7.50;5.90;;;;;;;21.53;64.74;97431.89;110169;1247;59679;-71
2022/08/05 05:29:02;;;;;;;8.40;6.40;;;;;;;21.68;64.01;97434.09;110164;1246;59679;-73
2022/08/05 05:31:42;;;;;;;7.90;6.10;;;;;;;21.85;63.46;97435.89;110308;1246;71557;-73
2022/08/05 05:34:13;;;;;;;7.40;5.60;;;;;;;21.99;61.99;97435.98;110222;1247;68212;-71
2022/08/05 05:36:45;;;;;;;5.80;5.20;;;;;;;22.29;61.97;97437.38;110208;1246;68457;-72
2022/08/05 05:39:18;;;;;;;4.90;4.30;;;;;;;22.79;63.00;97435.98;110193;1247;59730;-72
2022/08/05 05:41:47;;;;;;;4.50;3.60;;;;;;;23.34;63.55;97435.20;110289;1247;59776;-73
2022/08/05 05:44:22;;;;;;;6.80;5.40;;;;;;;23.98;60.02;97438.40;110220;1245;71060;-71
2022/08/05 05:47:05;;;;;;;5.00;4.60;;;;;;;24.35;57.54;97441.42;110024;1247;68906;-71
2022/08/05 05:49:49;;;;;;;4.50;4.00;;;;;;;24.75;57.80;97445.02;110204;1247;69899;-73
2022/08/05 05:52:24;;;;;;;5.10;4.00;;;;;;;25.03;53.77;97442.85;110232;1247;59671;-73
2022/08/05 05:55:01;;;;;;;4.40;4.00;;;;;;;25.40;55.04;97443.86;110515;1244;59708;-71
2022/08/05 05:57:42;;;;;;;5.10;4.30;;;;;;;25.57;51.24;97440.54;110444;1244;71957;-73
2022/08/05 06:00:21;;;;;;;5.10;3.80;;;;;;;25.75;52.06;97442.20;110304;1247;69971;-73
2022/08/05 06:03:02;;;;;;;4.40;4.00;;;;;;;26.05;50.34;97443.96;110323;1247;68503;-73
2022/08/05 06:05:51;;;;;;;4.80;4.00;;;;;;;26.24;48.63;97443.25;110347;1244;59769;-71
2022/08/05 06:08:22;;;;;;;5.00;4.40;;;;;;;26.38;49.57;97442.92;110234;1244;59668;-70
2022/08/05 06:11:00;;;;;;;4.90;4.50;;;;;;;26.51;48.74;97443.84;110244;1246;71605;-73
2022/08/05 06:13:31;;;;;;;4.50;4.10;;;;;;;26.70;49.23;97445.40;110359;1247;69483;-72
2022/08/05 06:16:17;;;;;;;5.10;3.90;;;;;;;26.96;46.31;97444.77;110298;1244;69616;-71
2022/08/05 06:18:59;;;;;;;5.40;4.20;;;;;;;27.06;46.66;97451.02;110326;1247;59711;-72
2022/08/05 06:21:33;;;;;;;4.50;4.10;;;;;;;27.30;45.71;97443.23;110274;1247;60395;-72
2022/08/05 06:24:06;;;;;;;4.70;4.20;;;;;;;27.39;45.10;97441.34;110229;1247;71314;-73
2022/08/05 06:26:40;;;;;;;5.80;3.90;;;;;;;27.12;45.66;97441.91;110423;1246;67658;-70
2022/08/05 06:29:20;;;;;;;4.70;4.30;;;;;;;26.95;45.63;97443.12;110321;1245;69428;-72
2022/08/05 06:32:10;;;;;;;4.60;4.10;;;;;;;26.70;46.13;97443.93;110222;1246;59705;-72
2022/08/05 06:34:59;;;;;;;4.60;4.10;;;;;;;27.30;45.95;97437.77;110438;1244;59730;-73
2022/08/05 06:37:34;;;;;;;4.90;4.30;;;;;;;27.40;45.03;97440.77;110480;1245;70715;-73
2022/08/05 06:40:22;;;;;;;4.60;4.20;;;;;;;27.67;45.07;97439.92;110425;1245;69838;-75
2022/08/05 06:42:59;;;;;;;5.00;4.60;;;;;;;27.75;44.37;97441.41;110328;1245;69730;-73
2022/08/05 06:45:28;;;;;;;6.50;4.90;;;;;;;28.10;43.46;97441.36;110237;1245;59694;-73
2022/08/05 06:48:17;;;;;;;5.70;4.70;;;;;;;27.87;43.58;97442.16;110259;1244;59701;-73
2022/08/05 06:51:05;;;;;;;;;;;;;;;28.04;42.92;97442.09;110303;1246;71587;-74
2022/08/05 06:53:37;;;;;;;6.10;5.30;;;;;;;28.59;42.88;97445.94;110458;1245;69364;-74
2022/08/05 06:56:07;;;;;;;5.30;4.80;;;;;;;28.66;41.91;97446.64;110260;1247;69221;-74
2022/08/05 06:58:54;;;;;;;5.30;4.70;;;;;;;28.77;41.16;97443.77;110316;1245;59757;-74
2022/08/05 07:01:24;;;;;;;6.10;5.20;;;;;;;28.77;40.96;97444.41;110328;1244;59694;-74
2022/08/05 07:04:00;;;;;;;5.00;4.50;;;;;;;29.36;41.14;97447.09;110221;1246;71986;-74
2022/08/05 07:06:30;;;;;;;4.90;4.50;;;;;;;29.83;39.63;97443.78;110498;1246;69939;-73
2022/08/05 07:09:00;;;;;;;5.00;4.40;;;;;;;29.81;38.27;97442.57;110674;1245;69319;-74
2022/08/05 07:11:33;;;;;;;5.20;4.70;;;;;;;29.82;39.11;97439.41;110427;1245;59675;-72
2022/08/05 07:16:59;;;;;;;4.70;4.30;;;;;;;30.03;38.17;97434.52;110548;1245;71969;-72
2022/08/05 07:19:53;;;;;;;5.10;4.60;;;;;;;30.50;38.03;97442.02;110405;1246;68620;-74
2022/08/05 07:22:41;;;;;;;4.30;3.90;;;;;;;30.82;37.05;97438.21;110477;1246;68464;-72
2022/08/05 07:25:13;;;;;;;5.50;4.50;;;;;;;31.11;36.18;97437.95;110252;1247;59765;-74
2022/08/05 07:28:02;;;;;;;4.50;4.10;;;;;;;31.22;36.11;97439.08;110428;1247;59818;-75
2022/08/05 07:30:37;;;;;;;4.20;3.80;;;;;;;31.23;35.73;97439.27;110523;1244;71782;-74
2022/08/05 07:33:10;;;;;;;4.90;4.40;;;;;;;31.34;34.74;97431.85;110647;1244;69191;-74
2022/08/05 07:35:45;;;;;;;4.80;4.30;;;;;;;31.23;34.61;97438.23;110711;1247;69256;-72
2022/08/05 07:38:34;;;;;;;;;;;;;;;30.88;35.45;97432.77;110415;1244;59667;-73
2022/08/05 07:41:15;;;;;;;;;;;;;;;30.96;35.34;97430.77;110516;1245;59660;-74
2022/08/05 07:44:07;;;;;;;4.50;3.80;;;;;;;31.03;35.38;97432.78;110236;1247;71388;-75
2022/08/05 07:46:47;;;;;;;5.20;4.30;;;;;;;30.99;35.40;97432.23;110260;1246;69114;-74
2022/08/05 07:49:19;;;;;;;4.70;4.20;;;;;;;30.97;34.31;97432.69;110224;1247;68083;-73
2022/08/05 07:51:48;;;;;;;4.20;3.80;;;;;;;30.62;34.64;97432.25;110213;1247;60442;-74
2022/08/05 07:54:27;;;;;;;3.40;3.10;;;;;;;30.29;34.44;97433.05;110419;1246;59762;-71
2022/08/05 07:57:00;;;;;;;3.60;3.30;;;;;;;30.34;35.05;97429.06;110242;1245;72240;-74
2022/08/05 07:59:50;;;;;;;3.90;3.30;;;;;;;31.11;34.88;97429.64;110672;1246;69400;-72
2022/08/05 08:02:24;;;;;;;4.10;3.70;;;;;;;31.46;33.55;97424.98;110135;1247;70472;-75
2022/08/05 08:05:00;;;;;;;3.40;3.10;;;;;;;31.41;33.31;97421.66;110285;1245;59720;-73
2022/08/05 08:07:29;;;;;;;5.30;4.20;;;;;;;31.54;33.40;97421.11;110163;1244;59743;-74
2022/08/05 08:10:18;;;;;;;5.20;4.40;;;;;;;30.90;33.86;97420.17;110117;1244;71150;-74
2022/08/05 08:12:49;;;;;;;4.40;4.00;;;;;;;31.09;33.06;97419.55;110372;1247;69527;-74
2022/08/05 08:15:18;;;;;;;4.20;3.50;;;;;;;30.72;33.52;97415.66;110474;1244;69428;-74
2022/08/05 08:18:07;;;;;;;3.70;3.40;;;;;;;31.22;33.17;97411.42;110248;1245;59679;-71
2022/08/05 08:20:42;;;;;;;4.10;3.70;;;;;;;31.72;32.90;97410.77;110386;1245;59660;-73
2022/08/05 08:23:31;;;;;;;4.40;4.10;;;;;;;32.29;31.95;97411.45;110330;1245;70916;-73
2022/08/05 08:26:22;;;;;;;3.70;3.30;;;;;;;32.57;31.18;97404.36;110078;1247;69357;-72
2022/08/05 08:28:58;;;;;;;4.20;3.20;;;;;;;32.40;31.30;97407.17;110064;1247;69435;-73
2022/08/05 08:31:48;;;;;;;4.30;3.60;;;;;;;32.80;31.18;97404.41;110315;1245;59747;-73
2022/08/05 08:34:19;;;;;;;5.00;3.40;;;;;;;33.17;30.46;97406.43;110396;1244;59612;-72
2022/08/05 08:37:02;;;;;;;4.70;4.00;;;;;;;33.55;30.20;97406.85;110376;1245;70895;-72
2022/08/05 08:39:34;;;;;;;3.60;3.30;;;;;;;33.78;29.78;97408.91;110254;1245;69671;-73
2022/08/05 08:42:08;;;;;;;4.00;3.60;;;;;;;33.81;29.61;97406.11;110376;1246;69395;-72
2022/08/05 08:44:59;;;;;;;3.90;3.50;;;;;;;33.89;29.36;97407.04;110269;1244;59693;-72
2022/08/05 08:47:51;;;;;;;4.20;3.80;;;;;;;33.14;29.34;97409.36;110257;1247;59736;-73
2022/08/05 08:50:43;;;;;;;3.40;3.10;;;;;;;32.57;30.59;97407.36;110307;1245;70806;-72
2022/08/05 08:53:36;;;;;;;3.50;3.20;;;;;;;33.39;30.06;97403.06;110302;1245;69376;-72
2022/08/05 08:56:11;;;;;;;4.50;4.10;;;;;;;33.47;29.51;97397.98;110435;1244;69307;-75
2022/08/05 08:58:41;;;;;;;4.60;3.50;;;;;;;33.52;30.11;97395.75;110138;1247;59715;-73
2022/08/05 09:01:17;;;;;;;3.80;3.40;;;;;;;33.90;29.72;97389.96;110160;1247;59703;-75
2022/08/05 09:03:52;;;;;;;4.90;4.00;;;;;;;34.48;28.62;97392.84;110245;1245;71514;-74
2022/08/05 09:06:29;;;;;;;4.10;3.70;;;;;;;34.25;28.68;97389.80;110119;1244;69614;-74
2022/08/05 09:09:00;;;;;;;4.40;3.80;;;;;;;33.54;29.58;97387.16;110122;1247;69551;-72
2022/08/05 09:11:32;;;;;;;3.80;3.50;;;;;;;33.93;28.97;97384.17;110301;1246;59732;-77
2022/08/05 09:14:21;;;;;;;4.10;3.30;;;;;;;34.41;28.25;97384.13;110129;1246;59712;-76
2022/08/05 09:17:11;;;;;;;3.30;3.00;;;;;;;34.59;27.77;97383.88;110293;1247;71564;-76
2022/08/05 09:20:01;;;;;;;3.40;3.10;;;;;;;34.29;27.87;97380.81;110335;1246;69302;-77
2022/08/05 09:23:04;;;;;;;4.40;4.00;;;;;;;34.59;28.39;97377.96;110179;1247;69204;-78
2022/08/05 09:25:42;;;;;;;4.50;4.10;;;;;;;35.33;28.19;97375.08;110229;1247;59713;-76
2022/08/05 09:28:32;;;;;;;3.80;3.50;;;;;;;36.05;26.98;97368.28;109984;1248;59719;-78
2022/08/05 09:31:13;;;;;;;4.20;3.80;;;;;;;36.11;26.52;97368.93;110328;1245;70599;-76
2022/08/05 09:34:03;;;;;;;3.40;2.90;;;;;;;36.57;25.62;97362.73;110132;1246;69921;-75
2022/08/05 09:36:43;;;;;;;3.50;3.10;;;;;;;37.00;24.80;97366.75;110309;1244;68459;-75
2022/08/05 09:39:24;;;;;;;3.40;3.10;;;;;;;36.91;23.67;97359.11;110229;1245;59748;-74
2022/08/05 09:42:17;;;;;;;5.10;3.50;;;;;;;36.95;24.36;97360.30;110160;1247;59624;-76
2022/08/05 09:44:55;;;;;;;4.00;3.60;;;;;;;36.67;25.44;97355.01;110283;1244;70756;-76
2022/08/05 09:47:44;;;;;;;4.20;3.30;;;;;;;37.20;24.25;97351.29;109958;1247;68851;-74
2022/08/05 09:50:34;;;;;;;3.30;2.60;;;;;;;37.32;24.49;97344.23;110244;1247;68522;-77
2022/08/05 09:53:11;;;;;;;3.10;2.80;;;;;;;37.56;23.84;97341.13;110162;1247;60113;-78
2022/08/05 09:56:00;;;;;;;3.80;3.10;;;;;;;38.11;23.83;97341.24;110282;1247;59698;-75
2022/08/05 09:58:32;;;;;;;5.10;3.20;;;;;;;38.22;23.69;97340.73;110263;1246;71600;-77
2022/08/05 10:01:05;;;;;;;3.60;3.20;;;;;;;38.26;23.95;97340.02;110266;1247;69431;-75
2022/08/05 10:04:03;;;;;;;4.20;3.50;;;;;;;38.16;23.35;97336.38;110224;1244;69250;-74
2022/08/05 10:06:56;;;;;;;4.00;3.40;;;;;;;38.24;23.55;97338.36;110130;1247;59771;-74
2022/08/05 10:09:28;;;;;;;3.90;3.50;;;;;;;38.27;23.21;97337.46;110264;1246;59706;-75
2022/08/05 10:12:12;;;;;;;3.60;3.30;;;;;;;38.55;23.21;97341.26;109724;1247;71978;-75
2022/08/05 10:15:17;;;;;;;5.50;3.00;;;;;;;38.69;22.43;97343.96;110199;1247;69325;-77
2022/08/05 10:18:16;;;;;;;4.50;2.90;;;;;;;38.80;22.41;97340.10;110227;1247;69282;-74
2022/08/05 10:20:47;;;;;;;3.60;3.30;;;;;;;39.02;22.05;97341.65;110169;1247;59746;-76
2022/08/05 10:23:20;;;;;;;3.40;2.90;;;;;;;38.96;22.25;97340.59;110298;1245;59646;-74
2022/08/05 10:26:13;;;;;;;3.50;2.80;;;;;;;39.09;20.89;97336.67;110201;1244;71389;-74
2022/08/05 10:28:44;;;;;;;4.60;3.30;;;;;;;39.30;21.05;97333.34;110375;1244;69190;-74
2022/08/05 10:31:15;;;;;;;2.90;2.70;;;;;;;39.34;21.74;97331.59;110047;1247;68640;-75
2022/08/05 10:34:06;;;;;;;3.20;2.90;;;;;;;39.61;20.64;97328.67;110039;1247;59767;-76
2022/08/05 10:36:38;;;;;;;2.80;2.50;;;;;;;39.42;19.87;97325.65;110318;1244;59698;-76
2022/08/05 10:39:15;;;;;;;3.10;2.80;;;;;;;38.68;20.75;97323.70;110418;1246;72111;-76
2022/08/05 10:42:17;;;;;;;3.40;3.00;;;;;;;38.02;22.02;97322.89;110457;1247;68538;-76
2022/08/05 10:45:01;;;;;;;3.80;3.50;;;;;;;37.35;21.75;97318.13;110321;1245;69308;-77
2022/08/05 10:47:50;;;;;;;2.80;2.50;;;;;;;37.86;22.65;97307.73;110075;1247;59719;-75
2022/08/05 10:51:02;;;;;;;3.30;3.00;;;;;;;37.73;22.57;97307.54;110165;1247;59674;-76
2022/08/05 10:53:40;;;;;;;3.00;2.70;;;;;;;36.32;23.49;97305.63;110145;1247;72015;-74
2022/08/05 10:56:15;;;;;;;3.60;3.10;;;;;;;36.03;24.90;97301.38;110245;1247;68936;-74
2022/08/05 10:58:55;;;;;;;3.50;2.50;;;;;;;36.73;24.25;97298.94;110255;1246;69864;-74
2022/08/05 11:01:37;;;;;;;2.90;2.60;;;;;;;37.24;23.78;97300.96;110251;1246;59818;-75
2022/08/05 11:04:30;;;;;;;3.70;3.40;;;;;;;37.53;23.53;97298.80;110252;1246;59682;-73
2022/08/05 11:07:06;;;;;;;3.90;3.20;;;;;;;37.37;23.22;97298.24;110132;1246;70781;-74
2022/08/05 11:09:47;;;;;;;3.60;3.30;;;;;;;37.62;24.06;97297.95;110131;1247;69174;-74
2022/08/05 11:12:35;;;;;;;2.50;2.30;;;;;;;38.03;22.20;97295.89;110229;1247;69406;-75
2022/08/05 11:15:14;;;;;;;3.30;3.00;;;;;;;37.75;21.10;97290.79;110236;1247;59712;-75
2022/08/05 11:17:51;;;;;;;3.70;2.90;;;;;;;37.43;20.92;97289.23;110255;1246;59648;-76
2022/08/05 11:20:38;;;;;;;3.80;2.90;;;;;;;37.21;21.21;97286.23;110247;1247;71738;-77
2022/08/05 11:23:50;;;;;;;3.20;2.90;;;;;;;36.82;22.48;97286.78;110202;1247;69210;-74
2022/08/05 11:26:38;;;;;;;2.90;2.60;;;;;;;37.07;22.69;97286.98;110271;1246;69219;-76
2022/08/05 11:29:34;;;;;;;4.20;3.10;;;;;;;37.69;22.27;97280.60;110257;1247;59776;-74
2022/08/05 11:32:28;;;;;;;2.80;2.60;;;;;;;37.09;23.06;97285.61;110145;1247;59774;-74
2022/08/05 11:34:57;;;;;;;2.70;2.50;;;;;;;37.02;23.18;97283.60;110262;1246;71472;-74
2022/08/05 11:38:01;;;;;;;3.90;2.90;;;;;;;37.43;22.97;97279.16;110231;1247;69169;-74
2022/08/05 11:40:58;;;;;;;2.80;2.50;;;;;;;37.67;22.17;97278.98;109536;1253;68482;-74
2022/08/05 11:44:00;;;;;;;2.90;2.40;;;;;;;37.87;21.72;97280.09;110074;1247;60166;-73
2022/08/05 11:46:42;;;;;;;3.10;2.90;;;;;;;38.24;22.17;97279.85;110251;1247;59738;-74
2022/08/05 11:49:31;;;;;;;3.30;2.90;;;;;;;38.41;22.48;97281.81;110223;1246;71383;-75
2022/08/05 11:52:01;;;;;;;3.40;2.80;;;;;;;38.44;21.72;97279.81;110147;1246;69201;-75
2022/08/05 11:54:39;;;;;;;2.90;2.70;;;;;;;37.66;22.03;97272.77;110311;1245;68461;-75
2022/08/05 11:57:10;;;;;;;3.10;2.80;;;;;;;37.21;22.45;97274.45;110203;1247;59739;-76
2022/08/05 11:59:54;;;;;;;3.40;2.80;;;;;;;36.82;23.41;97272.29;110234;1247;59698;-76
2022/08/05 12:02:30;;;;;;;4.10;2.80;;;;;;;36.52;23.54;97269.88;110292;1247;70973;-74
2022/08/05 12:05:02;;;;;;;2.50;2.30;;;;;;;36.50;22.72;97269.61;110282;1247;69305;-76
2022/08/05 12:07:47;;;;;;;4.20;3.10;;;;;;;36.84;22.51;97261.92;110146;1247;69197;-75
2022/08/05 12:10:38;;;;;;;3.40;2.60;;;;;;;36.83;22.57;97257.24;110328;1247;59735;-77
2022/08/05 12:13:15;;;;;;;4.10;3.30;;;;;;;36.74;24.73;97254.05;110286;1246;59644;-75
2022/08/05 12:16:08;;;;;;;2.80;2.40;;;;;;;36.77;22.98;97252.77;110231;1246;71411;-75
2022/08/05 12:18:44;;;;;;;3.10;2.70;;;;;;;36.62;23.08;97257.20;110064;1247;69312;-73
2022/08/05 12:21:26;;;;;;;3.80;3.00;;;;;;;36.68;23.78;97257.80;110085;1245;69784;-77
2022/08/05 12:24:05;;;;;;;3.60;2.60;;;;;;;36.28;24.01;97255.79;110337;1245;59715;-75
2022/08/05 12:26:37;;;;;;;3.50;2.80;;;;;;;36.37;24.00;97256.91;110250;1247;59691;-75
2022/08/05 12:29:17;;;;;;;2.80;2.60;;;;;;;36.21;22.89;97256.86;110254;1246;70664;-77